Wigton, United Kingdom
Current Conditions -  °F | °C
As of 5:50 PM on Friday 28 Nov 2014 (Local Time) from EGNC Reporting Station
Broken Clouds Broken Clouds  
Wind Chill: 50°   Ceiling: 1800
Heat Index: 50°   Visibility: 6mi
Dew Point: 50°   Wind: 12mph
Humidity: 100%   Direction: 80°E
Pressure: 29.8"   Gusts: NA
Location:  54.82°N, 3.16°W
Report Text: EGNC 281750Z 08010KT 9999 SCT009 BKN018 10/10 Q1009
Loading
Personal Weather Stations






























Interactive Weather Map New forecast layout! Learn more

10-Day Weather Forecast

Advertisements
Track Severe Weather on mobile